Time;durP1;ratioP1;P1;durP2;ratioP2;P2;SDS_P1;SDS_P2;PMS_P1;PMS_P2;Temp;Humidity;BMP_temperature;BMP_pressure;BME280_temperature;BME280_humidity;BME280_pressure;Samples;Min_cycle;Max_cycle;Signal;HPM_P1;HPM_P2
2023/08/31 00:00:00;;;;;;;0.13;0.13;;;;;;;;;;5007701;28;20034;-85
2023/08/31 00:02:25;;;;;;;0.20;0.20;;;;;;;;;;5013961;28;20046;-85
2023/08/31 00:04:52;;;;;;;0.20;0.20;;;;;;;;;;5027246;28;20104;-86
2023/08/31 00:07:17;;;;;;;0.20;0.20;;;;;;;;;;5018180;28;20034;-85
2023/08/31 00:09:42;;;;;;;0.10;0.10;;;;;;;;;;5022699;28;20439;-85
2023/08/31 00:12:07;;;;;;;0.20;0.20;;;;;;;;;;5008781;28;20097;-85
2023/08/31 00:14:32;;;;;;;0.20;0.20;;;;;;;;;;5010045;28;20034;-85
2023/08/31 00:16:58;;;;;;;0.20;0.20;;;;;;;13.66;nan;99846.97;5015208;28;20046;-85
2023/08/31 00:19:23;;;;;;;0.20;0.20;;;;;;;;;;5017674;28;20038;-86
2023/08/31 00:21:48;;;;;;;0.20;0.20;;;;;;;;;;5010798;28;20038;-86
2023/08/31 00:24:14;;;;;;;0.20;0.20;;;;;;;;;;5011477;28;20377;-86
2023/08/31 00:26:40;;;;;;;0.17;0.17;;;;;;;;;;5009908;28;20042;-86
2023/08/31 00:29:10;;;;;;;0.20;0.20;;;;;;;13.70;nan;99778.31;5006813;28;20104;-86
2023/08/31 00:31:36;;;;;;;0.10;0.10;;;;;;;;;;5008228;28;20049;-86
2023/08/31 00:34:04;;;;;;;0.20;0.20;;;;;;;;;;5012097;28;20081;-87
2023/08/31 00:36:31;;;;;;;0.10;0.10;;;;;;;;;;5008677;28;20045;-86
2023/08/31 00:38:56;;;;;;;0.10;0.10;;;;;;;;;;5000761;28;20105;-87
2023/08/31 00:41:22;;;;;;;0.20;0.20;;;;;;;;;;4987863;28;20054;-86
2023/08/31 00:43:47;;;;;;;0.10;0.10;;;;;;;;;;4986238;28;20616;-87
2023/08/31 00:46:13;;;;;;;0.17;0.17;;;;;;;;;;4987179;28;20034;-86
2023/08/31 00:48:40;;;;;;;0.10;0.10;;;;;;;;;;4986044;28;20376;-86
2023/08/31 00:51:06;;;;;;;0.20;0.20;;;;;;;13.74;nan;99780.41;4987319;28;20165;-87
2023/08/31 00:53:31;;;;;;;0.20;0.20;;;;;;;;;;4991437;28;20030;-86
2023/08/31 00:55:57;;;;;;;0.15;0.15;;;;;;;;;;4991418;28;20431;-86
2023/08/31 00:58:22;;;;;;;0.10;0.10;;;;;;;;;;4988621;28;20039;-86
2023/08/31 01:00:53;;;;;;;0.20;0.20;;;;;;;;;;4981520;28;20054;-86
2023/08/31 01:03:18;;;;;;;;;;;;;;;;;;4984075;28;20277;-85
2023/08/31 01:05:47;;;;;;;0.20;0.20;;;;;;;;;;4988309;28;20135;-85
2023/08/31 01:08:33;;;;;;;0.20;0.20;;;;;;;;;;4983720;28;20585;-86
2023/08/31 01:11:09;;;;;;;0.20;0.20;;;;;;;;;;4998183;28;20169;-85
2023/08/31 01:13:35;;;;;;;0.20;0.20;;;;;;;;;;4989156;28;20062;-86
2023/08/31 01:16:03;;;;;;;95.50;51.25;;;;;;;;;;4990404;28;20116;-86
2023/08/31 01:18:29;;;;;;;295.70;121.20;;;;;;;;;;4981796;28;20034;-85
2023/08/31 01:21:03;;;;;;;297.63;128.70;;;;;;;;;;4987522;28;20411;-85
2023/08/31 01:23:42;;;;;;;361.45;244.75;;;;;;;;;;4984709;28;20105;-85
2023/08/31 01:26:07;;;;;;;290.00;155.07;;;;;;;;;;4985190;28;20045;-86
2023/08/31 01:28:32;;;;;;;312.73;151.32;;;;;;;;;;4989905;28;20436;-85
2023/08/31 01:30:57;;;;;;;182.25;87.55;;;;;;;;;;4987829;28;20097;-85
2023/08/31 01:33:23;;;;;;;252.50;126.37;;;;;;;;;;4993079;28;20041;-85
2023/08/31 01:35:52;;;;;;;310.43;141.53;;;;;;;;;;5000361;28;20025;-85
2023/08/31 01:38:21;;;;;;;281.92;117.60;;;;;;;;;;5008975;28;20288;-85
2023/08/31 01:40:54;;;;;;;245.65;103.60;;;;;;;;;;5010829;28;20076;-85
2023/08/31 01:43:20;;;;;;;309.17;141.27;;;;;;;;;;5003135;28;20031;-86
2023/08/31 01:45:46;;;;;;;303.85;139.80;;;;;;;;;;5004590;28;20038;-86
2023/08/31 01:48:13;;;;;;;287.60;128.23;;;;;;;;;;5008749;28;20063;-86
2023/08/31 01:50:38;;;;;;;316.43;159.33;;;;;;;;;;5007597;28;20508;-85
2023/08/31 01:53:04;;;;;;;278.87;105.37;;;;;;;;;;5003577;28;20066;-85
2023/08/31 01:55:29;;;;;;;290.73;114.15;;;;;;;;;;5009403;28;20080;-85
2023/08/31 01:57:54;;;;;;;309.17;136.83;;;;;;;;;;5002428;28;20040;-86
2023/08/31 02:00:19;;;;;;;285.92;123.13;;;;;;;;;;5010378;28;20631;-85
2023/08/31 02:02:45;;;;;;;310.23;144.63;;;;;;;;;;5010717;28;20557;-85
2023/08/31 02:05:10;;;;;;;268.75;104.38;;;;;;;;;;5002254;28;20031;-85
2023/08/31 02:07:36;;;;;;;280.15;107.13;;;;;;;;;;5008914;28;20038;-85
2023/08/31 02:10:01;;;;;;;286.20;108.68;;;;;;;;;;5009048;28;20034;-86
2023/08/31 02:12:26;;;;;;;347.70;160.10;;;;;;;;;;5001395;28;20043;-85
2023/08/31 02:14:51;;;;;;;296.73;112.40;;;;;;;;;;5002408;28;20053;-86
2023/08/31 02:17:16;;;;;;;300.10;120.23;;;;;;;;;;5008379;28;20411;-85
2023/08/31 02:19:41;;;;;;;312.50;140.03;;;;;;;;;;5008914;28;20049;-85
2023/08/31 02:22:07;;;;;;;329.20;158.77;;;;;;;;;;5000394;28;20104;-86
2023/08/31 02:24:32;;;;;;;310.13;146.30;;;;;;;;;;5008552;28;20045;-85
2023/08/31 02:26:57;;;;;;;265.90;171.77;;;;;;;;;;5005313;28;20045;-86
2023/08/31 02:29:22;;;;;;;140.63;86.17;;;;;;;;;;5007984;28;20038;-86
2023/08/31 02:31:48;;;;;;;227.10;106.13;;;;;;;;;;5006205;28;20086;-86
2023/08/31 02:34:13;;;;;;;264.17;121.13;;;;;;;;;;5009784;28;20062;-86
2023/08/31 02:36:38;;;;;;;321.87;134.30;;;;;;;;;;5008278;28;20034;-86
2023/08/31 02:39:03;;;;;;;314.27;148.23;;;;;;;;;;5002287;28;20505;-85
2023/08/31 02:41:29;;;;;;;313.83;140.53;;;;;;;;;;5002068;28;20041;-85
2023/08/31 02:43:54;;;;;;;;;;;;;;;;;;5008687;28;20277;-86
2023/08/31 02:46:19;;;;;;;259.50;130.32;;;;;;;;;;5008391;28;19940;-86
2023/08/31 02:48:44;;;;;;;298.07;111.93;;;;;;;;;;5012194;28;20051;-86
2023/08/31 02:51:09;;;;;;;298.07;110.00;;;;;;;;;;5015139;28;20066;-86
2023/08/31 02:53:34;;;;;;;321.33;135.48;;;;;;;;;;5014134;28;20091;-85
2023/08/31 02:56:00;;;;;;;295.88;109.13;;;;;;;;;;5007999;28;20619;-85
2023/08/31 02:58:25;;;;;;;287.33;101.77;;;;;;;;;;5005570;28;20046;-85
2023/08/31 03:00:50;;;;;;;333.00;159.07;;;;;;;;;;5005696;28;20108;-86
2023/08/31 03:03:15;;;;;;;332.63;142.53;;;;;;;;;;5001694;28;20034;-85
2023/08/31 03:05:41;;;;;;;313.02;128.73;;;;;;;;;;5009402;28;20277;-85
2023/08/31 03:08:06;;;;;;;310.93;121.10;;;;;;;;;;5007547;28;20088;-86
2023/08/31 03:10:31;;;;;;;301.53;112.97;;;;;;;;;;5007584;28;20420;-86
2023/08/31 03:12:56;;;;;;;292.27;103.23;;;;;;;;;;5008774;28;20625;-86
2023/08/31 03:15:21;;;;;;;295.07;106.43;;;;;;;12.88;nan;99780.25;5009245;28;20030;-85
2023/08/31 03:17:47;;;;;;;292.02;103.28;;;;;;;;;;5007288;28;20477;-86
2023/08/31 03:20:12;;;;;;;295.27;104.47;;;;;;;;;;4999998;28;20120;-85
2023/08/31 03:22:37;;;;;;;311.23;129.57;;;;;;;;;;5009210;28;20048;-86
2023/08/31 03:25:02;;;;;;;284.63;103.60;;;;;;;;;;5008226;28;20295;-85
2023/08/31 03:27:28;;;;;;;290.20;106.38;;;;;;;;;;5001484;28;20088;-86
2023/08/31 03:29:53;;;;;;;279.70;98.00;;;;;;;;;;5006670;28;20244;-86
2023/08/31 03:32:18;;;;;;;270.17;93.93;;;;;;;;;;5005323;28;20072;-85
2023/08/31 03:34:43;;;;;;;269.65;94.57;;;;;;;;;;5008637;28;20038;-86
2023/08/31 03:37:09;;;;;;;264.73;94.10;;;;;;;;;;5001793;28;20034;-86
2023/08/31 03:39:34;;;;;;;269.05;91.05;;;;;;;12.84;nan;99927.56;5012596;28;20404;-85
2023/08/31 03:42:00;;;;;;;;;;;;;;;;;;5012999;28;20061;-86
2023/08/31 03:44:25;;;;;;;;;;;;;;;;;;5012502;28;19953;-86
2023/08/31 03:46:50;;;;;;;;;;;;;;;;;;5011687;28;20043;-85
2023/08/31 03:49:15;;;;;;;253.23;93.15;;;;;;;;;;5013495;28;20363;-86
2023/08/31 03:51:40;;;;;;;282.07;97.27;;;;;;;;;;5011975;28;20038;-86
2023/08/31 03:54:05;;;;;;;274.97;91.73;;;;;;;;;;5012104;28;20029;-86
2023/08/31 03:56:31;;;;;;;279.10;93.33;;;;;;;;;;5011522;28;20037;-86
2023/08/31 03:58:56;;;;;;;273.98;92.60;;;;;;;;;;5003850;28;20403;-85
2023/08/31 04:01:23;;;;;;;258.83;87.07;;;;;;;22.38;100.00;54003.44;5008051;28;20034;-85
2023/08/31 04:03:48;;;;;;;261.90;90.85;;;;;;;;;;5006179;28;20265;-86
2023/08/31 04:06:13;;;;;;;275.38;103.80;;;;;;;;;;5009688;28;20569;-86
2023/08/31 04:08:38;;;;;;;280.93;123.73;;;;;;;;;;5003512;28;20429;-86
2023/08/31 04:11:04;;;;;;;270.03;229.93;;;;;;;;;;5011292;28;20297;-86
2023/08/31 04:13:31;;;;;;;264.37;87.87;;;;;;;;;;5011029;28;20060;-86
2023/08/31 04:15:56;;;;;;;261.63;87.13;;;;;;;;;;5012834;28;20396;-86
2023/08/31 04:18:22;;;;;;;263.60;88.95;;;;;;;;;;5011712;28;20033;-85
2023/08/31 04:20:51;;;;;;;258.52;86.53;;;;;;;;;;5012237;28;20291;-85
2023/08/31 04:23:16;;;;;;;265.95;90.00;;;;;;;;;;5009678;28;20050;-86
2023/08/31 04:25:41;;;;;;;269.13;92.38;;;;;;;;;;5011571;28;20038;-86
2023/08/31 04:28:07;;;;;;;267.63;90.65;;;;;;;;;;5011739;28;20034;-86
2023/08/31 04:30:32;;;;;;;265.57;90.50;;;;;;;;;;5010990;28;20496;-86
2023/08/31 04:32:57;;;;;;;262.17;86.80;;;;;;;;;;5007230;28;20367;-86
2023/08/31 04:35:22;;;;;;;;;;;;;;;;;;5011727;28;20057;-86
2023/08/31 04:37:47;;;;;;;282.80;112.67;;;;;;;;;;5006284;28;19953;-86
2023/08/31 04:40:13;;;;;;;321.97;172.13;;;;;;;;;;5008112;28;20320;-86
2023/08/31 04:42:38;;;;;;;269.23;97.95;;;;;;;;;;5007813;28;20273;-86
2023/08/31 04:45:03;;;;;;;274.15;99.85;;;;;;;;;;5002811;28;20034;-86
2023/08/31 04:47:28;;;;;;;262.17;91.18;;;;;;;;;;5002749;28;20038;-86
2023/08/31 04:49:53;;;;;;;268.20;97.43;;;;;;;;;;5010994;28;20040;-85
2023/08/31 04:52:19;;;;;;;265.73;93.27;;;;;;;;;;5012170;28;20406;-87
2023/08/31 04:54:44;;;;;;;262.40;90.88;;;;;;;;;;5002146;28;20022;-86
2023/08/31 04:57:10;;;;;;;263.10;90.20;;;;;;;;;;5004170;28;20125;-85
2023/08/31 04:59:35;;;;;;;332.98;191.48;;;;;;;;;;5010049;28;20416;-86
2023/08/31 05:02:00;;;;;;;296.83;132.03;;;;;;;;;;5013684;28;20080;-86
2023/08/31 05:04:26;;;;;;;272.77;107.83;;;;;;;;;;5012025;28;20034;-86
2023/08/31 05:06:51;;;;;;;325.35;150.68;;;;;;;;;;5011627;28;20038;-85
2023/08/31 05:09:16;;;;;;;273.20;99.70;;;;;;;;;;5010936;28;20026;-86
2023/08/31 05:11:41;;;;;;;;;;;;;;;;;;5012113;28;20868;-86
2023/08/31 05:14:07;;;;;;;268.77;90.72;;;;;;;;;;5005393;28;19917;-86
2023/08/31 05:16:32;;;;;;;282.43;100.77;;;;;;;;;;5008161;28;20050;-87
2023/08/31 05:18:57;;;;;;;266.83;94.63;;;;;;;;;;5011224;28;20475;-87
2023/08/31 05:21:22;;;;;;;281.08;103.00;;;;;;;;;;5012890;28;20034;-88
2023/08/31 05:23:47;;;;;;;269.10;91.68;;;;;;;;;;5013810;28;20030;-86
2023/08/31 05:26:15;;;;;;;274.57;91.93;;;;;;;13.57;nan;99992.34;5012847;28;20030;-86
2023/08/31 05:28:40;;;;;;;275.60;97.18;;;;;;;;;;5010640;28;20033;-86
2023/08/31 05:31:05;;;;;;;278.67;96.67;;;;;;;;;;5012851;28;20041;-86
2023/08/31 05:33:33;;;;;;;290.27;108.37;;;;;;;;;;5003617;28;20113;-86
2023/08/31 05:36:00;;;;;;;274.73;98.35;;;;;;;;;;5012824;28;20273;-87
2023/08/31 05:38:25;;;;;;;266.52;96.05;;;;;;;;;;5011446;28;20137;-87
2023/08/31 05:40:50;;;;;;;271.77;97.90;;;;;;;;;;5010564;28;20105;-88
2023/08/31 05:43:16;;;;;;;278.93;100.83;;;;;;;;;;5002955;28;20036;-87
2023/08/31 05:45:41;;;;;;;257.13;88.88;;;;;;;;;;5010654;28;20284;-86
2023/08/31 05:48:07;;;;;;;261.70;91.53;;;;;;;;;;5011268;28;20044;-86
2023/08/31 05:50:32;;;;;;;265.50;97.72;;;;;;;;;;5009592;28;20040;-87
2023/08/31 05:52:58;;;;;;;265.10;94.60;;;;;;;;;;5002794;28;20132;-87
2023/08/31 05:55:23;;;;;;;271.33;98.07;;;;;;;;;;5010821;28;20639;-87
2023/08/31 05:57:48;;;;;;;260.90;92.13;;;;;;;;;;5011510;28;20040;-86
2023/08/31 06:00:14;;;;;;;260.00;90.83;;;;;;;;;;5010044;28;20189;-86
2023/08/31 06:02:39;;;;;;;336.67;203.70;;;;;;;;;;5004557;28;20439;-86
2023/08/31 06:05:05;;;;;;;297.65;134.52;;;;;;;;;;5004512;28;20045;-86
2023/08/31 06:07:30;;;;;;;298.08;145.65;;;;;;;;;;5011213;28;20033;-86
2023/08/31 06:09:56;;;;;;;287.65;113.00;;;;;;;15.53;nan;99965.47;5004695;28;20038;-87
2023/08/31 06:12:22;;;;;;;286.00;103.72;;;;;;;;;;5009897;28;20665;-86
2023/08/31 06:14:47;;;;;;;276.40;98.40;;;;;;;;;;5002817;28;20026;-87
2023/08/31 06:17:13;;;;;;;281.40;104.18;;;;;;;;;;5006177;28;20124;-87
2023/08/31 06:19:38;;;;;;;284.10;106.80;;;;;;;15.53;nan;100066.72;5010119;28;20038;-86
2023/08/31 06:22:04;;;;;;;277.00;102.13;;;;;;;15.54;nan;99951.94;5013727;28;20026;-86
2023/08/31 06:24:29;;;;;;;285.30;108.72;;;;;;;;;;5012388;28;20400;-87
2023/08/31 06:26:56;;;;;;;290.10;113.57;;;;;;;;;;5001526;28;20038;-86
2023/08/31 06:29:21;;;;;;;281.25;109.82;;;;;;;;;;5008952;28;20034;-87
2023/08/31 06:31:46;;;;;;;287.15;109.25;;;;;;;;;;5009208;28;20038;-87
2023/08/31 06:34:12;;;;;;;275.30;102.43;;;;;;;16.99;nan;99949.75;5008469;28;20280;-87
2023/08/31 06:36:37;;;;;;;276.35;106.43;;;;;;;17.54;nan;99973.44;5008722;28;20516;-87
2023/08/31 06:39:04;;;;;;;282.27;113.05;;;;;;;;;;5003202;28;20057;-87
2023/08/31 06:41:30;;;;;;;286.13;113.57;;;;;;;;;;5011707;28;20034;-88
2023/08/31 06:43:55;;;;;;;279.23;109.90;;;;;;;;;;5007924;28;20045;-87
2023/08/31 06:46:20;;;;;;;280.90;111.87;;;;;;;18.71;nan;100124.06;5004816;28;20061;-86
2023/08/31 06:48:45;;;;;;;283.20;114.70;;;;;;;;;;5010656;28;20558;-87
2023/08/31 06:51:11;;;;;;;278.10;108.80;;;;;;;;;;5006751;28;20311;-87
2023/08/31 06:53:37;;;;;;;279.80;110.90;;;;;;;;;;5018840;28;20054;-87
2023/08/31 06:56:02;;;;;;;292.40;132.43;;;;;;;17.11;nan;99996.19;5017562;28;20084;-87
2023/08/31 06:58:27;;;;;;;291.98;122.65;;;;;;;;;;5014182;28;20034;-87
2023/08/31 07:00:52;;;;;;;286.80;115.63;;;;;;;16.45;nan;100109.06;5017937;28;20057;-87
2023/08/31 07:03:18;;;;;;;297.83;123.82;;;;;;;;;;5016795;28;20054;-87
2023/08/31 07:05:43;;;;;;;309.37;139.60;;;;;;;;;;5020168;28;20053;-87
2023/08/31 07:08:09;;;;;;;403.15;296.27;;;;;;;;;;5019666;28;20128;-87
2023/08/31 07:10:37;;;;;;;269.25;229.25;;;;;;;15.95;nan;100129.75;5016918;28;20046;-89
2023/08/31 07:13:03;;;;;;;83.13;75.38;;;;;;;;;;5003529;28;20030;-87
2023/08/31 07:15:28;;;;;;;226.65;199.85;;;;;;;;;;5012682;28;20084;-87
2023/08/31 07:17:54;;;;;;;23.15;21.33;;;;;;;;;;4996477;28;20037;-86
2023/08/31 07:20:19;;;;;;;0.65;0.40;;;;;;;;;;5011141;28;20026;-86
2023/08/31 07:22:44;;;;;;;0.10;0.10;;;;;;;;;;5009990;28;20041;-87
2023/08/31 07:25:09;;;;;;;0.10;0.10;;;;;;;;;;5009487;28;20121;-87
2023/08/31 07:27:35;;;;;;;0.20;0.20;;;;;;;;;;5009146;28;20049;-87
2023/08/31 07:30:00;;;;;;;0.20;0.20;;;;;;;;;;5011051;28;20045;-86
2023/08/31 07:32:25;;;;;;;0.10;0.10;;;;;;;;;;4994294;28;20053;-86
2023/08/31 07:34:50;;;;;;;0.30;0.30;;;;;;;;;;4989929;28;20031;-86
2023/08/31 07:37:15;;;;;;;32.73;28.70;;;;;;;;;;4989709;28;20133;-86
2023/08/31 07:39:41;;;;;;;164.23;103.23;;;;;;;;;;4987131;28;20043;-87
2023/08/31 07:42:09;;;;;;;85.57;77.37;;;;;;;;;;5000483;28;20360;-87
2023/08/31 07:44:34;;;;;;;222.27;147.02;;;;;;;;;;4991093;28;20062;-86
2023/08/31 07:46:59;;;;;;;334.47;176.00;;;;;;;;;;5002759;28;20034;-87
2023/08/31 07:49:24;;;;;;;302.60;116.00;;;;;;;;;;4998693;28;20273;-86
2023/08/31 07:51:49;;;;;;;311.07;137.27;;;;;;;;;;4999759;28;20058;-88
2023/08/31 07:54:21;;;;;;;312.40;133.43;;;;;;;;;;4992657;28;20038;-87
2023/08/31 07:56:46;;;;;;;298.42;118.40;;;;;;;;;;4990707;28;20030;-86
2023/08/31 07:59:11;;;;;;;331.83;174.98;;;;;;;;;;4990388;28;20096;-88
2023/08/31 08:01:36;;;;;;;327.27;157.20;;;;;;;18.52;nan;100033.91;4980261;28;20043;-88
2023/08/31 08:04:02;;;;;;;336.55;177.85;;;;;;;;;;4991262;28;20035;-88
2023/08/31 08:06:27;;;;;;;318.80;145.70;;;;;;;18.70;nan;100127.75;4980175;28;20513;-88
2023/08/31 08:08:52;;;;;;;330.20;173.38;;;;;;;;;;4981978;28;20597;-88
2023/08/31 08:11:17;;;;;;;347.52;219.55;;;;;;;;;;4981385;28;20042;-88
2023/08/31 08:13:43;;;;;;;350.23;214.40;;;;;;;19.56;nan;100090.63;4983494;28;20030;-88
2023/08/31 08:16:08;;;;;;;347.55;292.67;;;;;;;19.53;nan;100083.84;4988631;28;20036;-90
2023/08/31 08:18:34;;;;;;;354.83;222.95;;;;;;;;;;4981027;28;20042;-87
2023/08/31 08:20:59;;;;;;;340.63;185.47;;;;;;;;;;4974014;28;20039;-87
2023/08/31 08:23:24;;;;;;;334.63;181.90;;;;;;;;;;4981421;28;20437;-88
2023/08/31 08:25:49;;;;;;;314.27;141.23;;;;;;;;;;4992964;28;20048;-87
2023/08/31 08:28:14;;;;;;;325.87;158.80;;;;;;;;;;4990707;28;20504;-86
2023/08/31 08:30:39;;;;;;;316.83;148.60;;;;;;;;;;4991415;28;20852;-87
2023/08/31 08:33:05;;;;;;;291.77;127.30;;;;;;;18.49;nan;100152.97;4994569;28;20030;-87
2023/08/31 08:35:30;;;;;;;311.70;167.82;;;;;;;;;;4995332;28;20129;-86
2023/08/31 08:37:55;;;;;;;336.27;180.27;;;;;;;18.18;nan;100156.41;4987294;28;20042;-87
2023/08/31 08:40:20;;;;;;;308.70;152.30;;;;;;;;;;4987622;28;20620;-87
2023/08/31 08:42:45;;;;;;;;;;;;;;;;;;4983942;28;20039;-87
2023/08/31 08:45:15;;;;;;;360.35;210.10;;;;;;;-145.28;nan;120368.31;4976250;28;20383;-87
2023/08/31 08:47:42;;;;;;;331.70;206.20;;;;;;;18.61;nan;100078.97;4981719;28;20065;-88
2023/08/31 08:50:08;;;;;;;317.35;155.80;;;;;;;18.67;nan;100171.84;4986850;28;20030;-87
2023/08/31 08:52:33;;;;;;;313.67;162.52;;;;;;;;;;4986011;28;20072;-87
2023/08/31 08:54:59;;;;;;;282.70;189.70;;;;;;;;;;4989319;28;20503;-87
2023/08/31 08:57:24;;;;;;;254.55;166.27;;;;;;;;;;4990555;28;20359;-87
2023/08/31 08:59:49;;;;;;;332.30;180.10;;;;;;;18.52;nan;100093.66;4987742;28;20443;-87
2023/08/31 09:02:15;;;;;;;225.82;139.10;;;;;;;;;;4995016;28;20039;-87
2023/08/31 09:04:40;;;;;;;342.37;254.57;;;;;;;;;;4986912;28;20037;-87
2023/08/31 09:07:05;;;;;;;1.10;1.00;;;;;;;;;;4983470;28;20277;-87
2023/08/31 09:09:30;;;;;;;0.10;0.10;;;;;;;;;;4982682;28;20528;-86
2023/08/31 09:11:55;;;;;;;0.10;0.10;;;;;;;;;;4986800;28;20659;-87
2023/08/31 09:14:21;;;;;;;0.10;0.10;;;;;;;;;;4980481;28;20286;-87
2023/08/31 09:16:50;;;;;;;0.10;0.10;;;;;;;;;;4986615;28;20061;-87
2023/08/31 09:19:24;;;;;;;0.10;0.10;;;;;;;;;;4979301;28;20038;-87
2023/08/31 09:21:51;;;;;;;0.10;0.10;;;;;;;;;;4980903;28;20488;-88
2023/08/31 09:24:19;;;;;;;0.10;0.10;;;;;;;19.42;nan;100088.06;4987925;28;20050;-88
2023/08/31 09:26:46;;;;;;;0.10;0.10;;;;;;;;;;4992123;28;20578;-87
2023/08/31 09:29:11;;;;;;;0.10;0.10;;;;;;;;;;4991753;28;20038;-88
2023/08/31 09:31:36;;;;;;;0.10;0.10;;;;;;;;;;4991554;28;20037;-87
2023/08/31 09:34:03;;;;;;;0.10;0.10;;;;;;;19.41;nan;100161.50;4993191;28;20079;-87
2023/08/31 09:36:28;;;;;;;0.10;0.10;;;;;;;19.45;nan;100049.25;4991185;28;20847;-88
2023/08/31 09:38:57;;;;;;;0.10;0.10;;;;;;;19.50;nan;100090.47;4989156;28;20034;-88
2023/08/31 09:41:22;;;;;;;0.10;0.10;;;;;;;;;;5005790;28;20026;-88
2023/08/31 09:43:47;;;;;;;0.10;0.10;;;;;;;19.54;nan;100080.13;4992390;28;20030;-88
2023/08/31 09:46:14;;;;;;;0.10;0.10;;;;;;;19.51;nan;100107.38;4991699;28;20030;-88
2023/08/31 09:48:39;;;;;;;0.10;0.10;;;;;;;;;;4984476;28;20026;-89
2023/08/31 09:51:05;;;;;;;0.10;0.10;;;;;;;19.41;nan;100088.31;4992261;28;20414;-87
2023/08/31 09:53:31;;;;;;;0.20;0.20;;;;;;;19.56;nan;100115.59;4992177;28;20054;-88
2023/08/31 09:55:57;;;;;;;0.20;0.20;;;;;;;;;;4992497;28;20056;-88
2023/08/31 09:58:22;;;;;;;0.20;0.20;;;;;;;;;;4990866;28;20035;-88
2023/08/31 10:00:51;;;;;;;0.10;0.10;;;;;;;;;;4983582;28;20038;-88
2023/08/31 10:03:17;;;;;;;0.10;0.10;;;;;;;22.37;nan;100081.56;4992769;28;20636;-89
2023/08/31 10:05:48;;;;;;;0.10;0.10;;;;;;;21.76;nan;100199.56;4983298;28;20038;-88
2023/08/31 10:08:13;;;;;;;0.17;0.15;;;;;;;;;;4982964;28;20062;-89
2023/08/31 10:10:39;;;;;;;0.20;0.20;;;;;;;21.31;nan;100103.22;4989586;28;20513;-88
2023/08/31 10:13:05;;;;;;;0.40;0.40;;;;;;;20.94;nan;100099.91;4991877;28;20235;-87
2023/08/31 10:15:35;;;;;;;2.08;1.92;;;;;;;20.85;nan;100123.59;4998387;28;20027;-88
2023/08/31 10:18:04;;;;;;;89.53;81.68;;;;;;;21.78;nan;100088.97;4991606;28;20031;-87
2023/08/31 10:20:31;;;;;;;369.02;243.20;;;;;;;22.94;nan;100123.84;4982381;28;20042;-88
2023/08/31 10:23:05;;;;;;;334.42;210.52;;;;;;;22.89;nan;100078.72;4989161;28;20042;-87
2023/08/31 10:25:45;;;;;;;313.83;167.23;;;;;;;22.37;nan;100118.47;4983393;28;20452;-87
2023/08/31 10:28:40;;;;;;;293.33;133.13;;;;;;;21.79;nan;100082.53;4985491;28;20041;-86
2023/08/31 10:31:09;;;;;;;294.65;132.43;;;;;;;;;;4986223;28;20035;-87
2023/08/31 10:33:39;;;;;;;285.15;127.20;;;;;;;;;;4982995;28;20043;-86
2023/08/31 10:36:08;;;;;;;282.45;124.55;;;;;;;;;;4992489;28;20281;-86
2023/08/31 10:38:34;;;;;;;;;;;;;;;;;;4988474;28;20504;-86
2023/08/31 10:41:20;;;;;;;302.00;166.00;;;;;;;24.28;nan;100105.84;4986969;28;19924;-86
2023/08/31 10:43:57;;;;;;;341.42;231.02;;;;;;;25.35;nan;100138.56;5005894;28;19925;-85
2023/08/31 10:46:28;;;;;;;311.90;185.50;;;;;;;25.07;nan;100128.81;4970983;28;20499;-86
2023/08/31 10:49:15;;;;;;;376.83;278.10;;;;;;;24.29;nan;100095.88;4980490;28;20046;-87
2023/08/31 10:51:41;;;;;;;410.52;363.02;;;;;;;;;;4986206;28;20096;-88
2023/08/31 10:54:18;;;;;;;362.27;274.70;;;;;;;23.11;nan;100108.50;4985206;28;20042;-87
2023/08/31 10:57:08;;;;;;;383.98;306.38;;;;;;;22.69;nan;100111.56;4988795;28;20042;-86
2023/08/31 10:59:44;;;;;;;419.25;373.73;;;;;;;22.24;nan;100108.81;4981639;28;20495;-87
2023/08/31 11:02:10;;;;;;;398.58;322.40;;;;;;;;;;4988572;28;20038;-86
2023/08/31 11:05:04;;;;;;;382.57;296.03;;;;;;;21.85;nan;100095.03;4989428;28;20097;-86
2023/08/31 11:07:29;;;;;;;385.63;308.38;;;;;;;21.80;nan;100050.00;4986569;28;20671;-86
2023/08/31 11:10:06;;;;;;;344.08;289.08;;;;;;;;;;4978601;28;20122;-87
2023/08/31 11:12:32;;;;;;;396.52;318.77;;;;;;;22.38;100.00;120244.00;4992349;28;20043;-87
2023/08/31 11:14:57;;;;;;;235.77;212.90;;;;;;;;;;4982247;28;20030;-86
2023/08/31 11:17:24;;;;;;;316.53;283.20;;;;;;;20.95;nan;100080.88;4989922;28;20086;-86
2023/08/31 11:19:49;;;;;;;163.07;120.43;;;;;;;;;;4987746;28;20030;-86
2023/08/31 11:22:14;;;;;;;385.83;293.83;;;;;;;;;;4975737;28;20034;-87
2023/08/31 11:24:40;;;;;;;356.08;253.82;;;;;;;24.29;nan;100085.88;4990473;28;20289;-86
2023/08/31 11:27:08;;;;;;;315.67;182.77;;;;;;;25.13;nan;100132.41;4990311;28;20023;-86
2023/08/31 11:29:36;;;;;;;320.10;200.15;;;;;;;;;;4978828;28;20109;-87
2023/08/31 11:32:02;;;;;;;331.00;225.93;;;;;;;;;;4986204;28;20202;-84
2023/08/31 11:34:27;;;;;;;330.30;235.15;;;;;;;27.68;nan;100104.50;5022237;28;20291;-85
2023/08/31 11:36:53;;;;;;;380.33;307.88;;;;;;;26.73;nan;100100.47;5023539;28;20041;-87
2023/08/31 11:39:19;;;;;;;358.85;265.02;;;;;;;25.82;nan;100059.25;5019042;28;20041;-85
2023/08/31 11:41:44;;;;;;;411.42;341.55;;;;;;;;;;5017819;28;20025;-86
2023/08/31 11:44:15;;;;;;;478.43;432.03;;;;;;;24.89;nan;100054.31;5013157;28;20161;-85
2023/08/31 11:46:42;;;;;;;;;;;;;;;25.76;nan;100105.50;5022563;28;20327;-85
2023/08/31 11:49:07;;;;;;;345.80;238.20;;;;;;;;;;5013825;28;19928;-85
2023/08/31 11:51:34;;;;;;;333.30;214.40;;;;;;;24.53;nan;100102.66;5018070;28;20293;-86
2023/08/31 11:54:04;;;;;;;357.85;260.90;;;;;;;23.85;nan;100107.47;5018698;28;20026;-87
2023/08/31 11:56:42;;;;;;;344.40;231.50;;;;;;;23.44;nan;100090.69;5010188;28;20088;-85
2023/08/31 11:59:13;;;;;;;330.92;209.50;;;;;;;;;;5020564;28;20041;-84
2023/08/31 12:01:40;;;;;;;335.65;212.80;;;;;;;22.65;nan;100096.09;5014316;28;20034;-85
2023/08/31 12:04:16;;;;;;;394.95;347.42;;;;;;;22.31;nan;100092.50;5020523;28;20037;-86
2023/08/31 12:06:46;;;;;;;393.98;338.30;;;;;;;22.10;nan;100086.69;5021237;28;20038;-86
2023/08/31 12:09:11;;;;;;;390.70;348.60;;;;;;;;;;5020803;28;20034;-85
2023/08/31 12:11:36;;;;;;;409.67;364.77;;;;;;;;;;5023207;28;20041;-86
2023/08/31 12:14:04;;;;;;;411.33;368.23;;;;;;;21.45;nan;100089.56;5017790;28;20045;-85
2023/08/31 12:16:33;;;;;;;38.47;35.28;;;;;;;;;;5018853;28;20037;-86
2023/08/31 12:19:04;;;;;;;7.60;6.90;;;;;;;;;;5020817;28;20030;-85
2023/08/31 12:21:32;;;;;;;0.10;0.10;;;;;;;20.87;nan;100073.13;5021153;28;20100;-86
2023/08/31 12:23:59;;;;;;;0.10;0.10;;;;;;;20.89;nan;100156.22;5021204;28;20108;-85
2023/08/31 12:26:24;;;;;;;0.10;0.10;;;;;;;;;;5027504;28;20042;-85
2023/08/31 12:28:49;;;;;;;0.10;0.10;;;;;;;;;;5021834;28;20095;-85
2023/08/31 12:31:22;;;;;;;0.10;0.10;;;;;;;;;;5021390;28;20080;-84
2023/08/31 12:33:47;;;;;;;357.25;259.70;;;;;;;;;;5009649;28;20426;-84
2023/08/31 12:36:12;;;;;;;335.07;236.00;;;;;;;;;;4996637;28;20034;-85
2023/08/31 12:38:38;;;;;;;366.67;288.15;;;;;;;;;;4993385;28;20288;-84
2023/08/31 12:41:03;;;;;;;319.77;205.90;;;;;;;;;;4993941;28;20030;-86
2023/08/31 12:43:28;;;;;;;333.45;219.73;;;;;;;;;;4994067;28;20276;-85
2023/08/31 12:45:57;;;;;;;339.40;234.70;;;;;;;24.07;nan;100093.97;4994536;28;20057;-86
2023/08/31 12:48:23;;;;;;;327.20;212.13;;;;;;;24.15;nan;100125.16;5010647;28;20488;-85
2023/08/31 12:50:48;;;;;;;322.23;204.52;;;;;;;;;;5008996;28;20026;-86
2023/08/31 12:53:14;;;;;;;324.67;192.48;;;;;;;;;;5016319;28;20038;-85
2023/08/31 12:55:39;;;;;;;316.52;193.52;;;;;;;;;;5026038;28;20040;-86
2023/08/31 12:58:04;;;;;;;405.63;329.80;;;;;;;23.32;nan;100201.38;5027466;28;20216;-85
2023/08/31 13:00:30;;;;;;;382.23;300.08;;;;;;;23.33;nan;100115.88;5016915;28;20045;-86
2023/08/31 13:02:55;;;;;;;282.80;256.60;;;;;;;;;;5025185;28;20033;-85
2023/08/31 13:05:20;;;;;;;0.97;0.70;;;;;;;23.65;nan;100161.16;5024117;28;20061;-85
2023/08/31 13:07:46;;;;;;;0.10;0.10;;;;;;;;;;5022759;28;20101;-85
2023/08/31 13:10:11;;;;;;;0.00;0.00;;;;;;;;;;5021452;28;20030;-85
2023/08/31 13:12:37;;;;;;;0.00;0.00;;;;;;;;;;5022957;28;20041;-84
2023/08/31 13:15:02;;;;;;;0.10;0.10;;;;;;;;;;5020881;28;20269;-86
2023/08/31 13:17:28;;;;;;;0.05;0.05;;;;;;;;;;5012667;28;20170;-86
2023/08/31 13:19:54;;;;;;;0.10;0.10;;;;;;;;;;5022030;28;20523;-86